Time;durP1;ratioP1;P1;durP2;ratioP2;P2;SDS_P1;SDS_P2;PMS_P1;PMS_P2;Temp;Humidity;BMP_temperature;BMP_pressure;BME280_temperature;BME280_humidity;BME280_pressure;Samples;Min_cycle;Max_cycle;Signal;HPM_P1;HPM_P2
2020/12/06 00:00:22;;;;;;;176.73;66.50;;;;;;;-0.71;100.00;93925.56;1026835;28;20046;-72
2020/12/06 00:00:53;;;;;;;221.83;74.93;;;;;;;-0.69;100.00;93927.91;1026641;28;20830;-69
2020/12/06 00:01:23;;;;;;;188.57;72.30;;;;;;;-0.73;100.00;93928.38;1026378;28;20464;-73
2020/12/06 00:01:54;;;;;;;182.47;74.37;;;;;;;-0.70;100.00;93927.13;1026420;28;20058;-72
2020/12/06 00:02:25;;;;;;;170.93;71.53;;;;;;;-0.60;100.00;93939.38;1030310;28;20037;-75
2020/12/06 00:02:55;;;;;;;229.73;77.10;;;;;;;-0.61;100.00;93930.84;1031120;28;20116;-71
2020/12/06 00:03:26;;;;;;;225.33;74.27;;;;;;;-0.63;100.00;93942.41;1030880;28;20030;-73
2020/12/06 00:03:57;;;;;;;253.80;78.75;;;;;;;-0.62;100.00;93931.88;1027022;28;20562;-71
2020/12/06 00:04:28;;;;;;;224.33;77.30;;;;;;;-0.59;100.00;93931.41;1027008;28;20030;-72
2020/12/06 00:04:58;;;;;;;212.48;74.55;;;;;;;-0.56;100.00;93923.19;1023201;28;20023;-71
2020/12/06 00:05:29;;;;;;;168.37;67.20;;;;;;;-0.61;100.00;93915.38;1026946;28;20026;-73
2020/12/06 00:05:59;;;;;;;205.63;72.40;;;;;;;-0.54;100.00;93928.91;1034954;28;20073;-72
2020/12/06 00:06:30;;;;;;;241.40;77.87;;;;;;;-0.56;100.00;93932.72;1031037;28;20026;-70
2020/12/06 00:07:01;;;;;;;224.77;76.43;;;;;;;-0.56;100.00;93932.72;1031182;28;20022;-74
2020/12/06 00:07:31;;;;;;;264.43;75.57;;;;;;;-0.59;100.00;93933.19;1034712;28;20613;-70
2020/12/06 00:08:01;;;;;;;353.73;79.07;;;;;;;-0.63;100.00;93937.25;1031056;28;20080;-71
2020/12/06 00:08:32;;;;;;;375.50;83.97;;;;;;;-0.65;100.00;93939.28;1035107;28;20064;-71
2020/12/06 00:09:06;;;;;;;361.47;85.03;;;;;;;-0.72;100.00;93937.66;1030630;28;20011;-73
2020/12/06 00:09:36;;;;;;;349.63;85.57;;;;;;;-0.82;100.00;93927.22;1023180;28;20141;-73
2020/12/06 00:10:07;;;;;;;516.77;102.20;;;;;;;-0.72;100.00;93942.03;1030939;28;20681;-72
2020/12/06 00:10:38;;;;;;;594.27;110.03;;;;;;;-0.88;100.00;93924.81;1026991;28;20447;-72
2020/12/06 00:11:08;;;;;;;678.07;119.80;;;;;;;-0.86;100.00;93915.06;1031044;28;20027;-72
2020/12/06 00:11:38;;;;;;;696.33;121.90;;;;;;;-0.81;100.00;93931.34;1025995;28;20045;-73
2020/12/06 00:12:09;;;;;;;675.23;119.57;;;;;;;-0.79;100.00;93931.13;1022921;28;20031;-72
2020/12/06 00:12:39;;;;;;;727.83;125.07;;;;;;;-0.80;100.00;93927.78;1026976;28;20465;-72
2020/12/06 00:13:10;;;;;;;628.87;116.07;;;;;;;-0.78;100.00;93928.28;1023984;28;20027;-70
2020/12/06 00:13:41;;;;;;;545.60;103.53;;;;;;;-0.84;100.00;93916.38;1022607;29;20023;-73
2020/12/06 00:14:11;;;;;;;394.50;92.50;;;;;;;-0.79;100.00;93921.59;1023075;29;20043;-71
2020/12/06 00:14:42;;;;;;;411.17;93.93;;;;;;;-0.80;100.00;93927.78;1022813;29;20016;-71
2020/12/06 00:15:12;;;;;;;428.90;95.67;;;;;;;-0.87;100.00;93908.34;1023103;28;20394;-73
2020/12/06 00:15:43;;;;;;;460.33;100.50;;;;;;;-0.83;100.00;93917.16;1022688;29;20388;-71
2020/12/06 00:16:14;;;;;;;299.13;84.73;;;;;;;-0.78;100.00;93924.94;1022869;29;20027;-70
2020/12/06 00:16:48;;;;;;;296.85;84.63;;;;;;;-0.79;100.00;93929.31;1029261;28;20070;-72
2020/12/06 00:17:18;;;;;;;406.80;90.72;;;;;;;-0.78;100.00;93937.81;1026833;28;20030;-70
2020/12/06 00:17:49;;;;;;;407.50;90.10;;;;;;;-0.87;100.00;93921.19;1027349;28;20500;-71
2020/12/06 00:18:19;;;;;;;553.20;107.67;;;;;;;-0.80;100.00;93942.44;1027125;28;20018;-72
2020/12/06 00:18:50;;;;;;;640.00;117.57;;;;;;;-0.83;100.00;93941.09;1031052;28;20041;-72
2020/12/06 00:19:20;;;;;;;571.60;114.07;;;;;;;-0.85;100.00;93945.69;1030919;28;20407;-70
2020/12/06 00:19:50;;;;;;;496.10;106.67;;;;;;;-0.83;100.00;93942.91;1034901;28;20018;-69
2020/12/06 00:20:21;;;;;;;565.70;114.43;;;;;;;-0.86;100.00;93936.44;1039007;28;20021;-72
2020/12/06 00:20:52;;;;;;;463.47;103.07;;;;;;;-0.83;100.00;93938.53;1030992;28;20022;-70
2020/12/06 00:21:22;;;;;;;456.83;95.43;;;;;;;-0.89;100.00;93924.03;1030157;28;20069;-69
2020/12/06 00:21:53;;;;;;;461.90;103.47;;;;;;;-0.85;100.00;93927.69;1026520;28;20114;-72
2020/12/06 00:22:23;;;;;;;598.37;108.90;;;;;;;-0.78;100.00;93933.44;1023197;28;20063;-71
2020/12/06 00:22:54;;;;;;;710.27;125.10;;;;;;;-0.91;100.00;93910.59;1026993;28;20007;-71
2020/12/06 00:23:24;;;;;;;572.80;107.10;;;;;;;-0.80;100.00;93927.78;1022868;28;20023;-71
2020/12/06 00:23:55;;;;;;;445.43;95.77;;;;;;;-0.80;100.00;93922.63;1022738;28;20023;-70
2020/12/06 00:24:25;;;;;;;538.97;107.80;;;;;;;-0.76;100.00;93931.41;1022976;28;20015;-71
2020/12/06 00:24:56;;;;;;;529.83;109.10;;;;;;;-0.80;100.00;93943.22;1027618;28;20077;-74
2020/12/06 00:25:27;;;;;;;569.10;116.17;;;;;;;-0.84;100.00;93956.78;1032568;28;20010;-70
2020/12/06 00:25:57;;;;;;;550.63;117.10;;;;;;;-0.85;100.00;93963.72;1031103;28;20053;-72
2020/12/06 00:26:27;;;;;;;508.50;106.73;;;;;;;-0.88;100.00;93960.84;1031404;28;20499;-71
2020/12/06 00:26:58;;;;;;;324.33;88.47;;;;;;;-0.84;100.00;93972.22;1034961;28;20065;-71
2020/12/06 00:27:32;;;;;;;446.97;102.83;;;;;;;-0.96;100.00;93955.06;1031098;28;20042;-72
2020/12/06 00:28:03;;;;;;;583.83;115.20;;;;;;;-0.84;100.00;93960.16;1030870;28;20038;-72
2020/12/06 00:28:33;;;;;;;688.07;119.03;;;;;;;-0.86;100.00;93959.59;1030903;28;20073;-71
2020/12/06 00:29:04;;;;;;;864.97;135.57;;;;;;;-0.84;100.00;93952.44;1034983;28;20045;-71
2020/12/06 00:29:34;;;;;;;764.20;129.37;;;;;;;-0.87;100.00;93960.63;1026940;28;20721;-71
2020/12/06 00:30:06;;;;;;;735.93;129.03;;;;;;;-1.02;100.00;93934.66;1022506;28;20026;-74
2020/12/06 00:30:37;;;;;;;597.50;108.95;;;;;;;-0.83;100.00;93953.22;1023183;28;20540;-70
2020/12/06 00:31:07;;;;;;;596.27;112.23;;;;;;;-0.87;100.00;93957.25;1026941;28;20046;-72
2020/12/06 00:31:38;;;;;;;654.40;120.53;;;;;;;-0.96;100.00;93952.50;1026428;28;20085;-72
2020/12/06 00:32:08;;;;;;;707.07;127.80;;;;;;;-0.82;100.00;93976.13;1026488;28;20058;-72
2020/12/06 00:32:39;;;;;;;702.23;121.57;;;;;;;-0.85;100.00;93976.59;1019013;29;20546;-72
2020/12/06 00:33:09;;;;;;;669.00;125.57;;;;;;;-0.85;100.00;93989.47;1023046;29;20020;-72
2020/12/06 00:33:40;;;;;;;658.13;119.17;;;;;;;-0.91;100.00;93981.91;1024544;28;20038;-71
2020/12/06 00:34:11;;;;;;;696.70;124.77;;;;;;;-0.89;100.00;93988.38;1031036;28;20030;-71
2020/12/06 00:34:41;;;;;;;664.07;124.00;;;;;;;-0.88;100.00;93995.09;1031104;28;20022;-72
2020/12/06 00:35:12;;;;;;;738.20;129.83;;;;;;;-0.87;100.00;93988.94;1030809;28;20061;-72
2020/12/06 00:35:42;;;;;;;765.73;127.27;;;;;;;-0.94;100.00;93967.69;1030852;28;20117;-72
2020/12/06 00:36:13;;;;;;;653.13;122.23;;;;;;;-0.97;100.00;93968.19;1030989;28;20573;-71
2020/12/06 00:36:47;;;;;;;736.13;123.63;;;;;;;-0.90;100.00;93971.38;1030679;28;20022;-73
2020/12/06 00:37:18;;;;;;;566.95;104.32;;;;;;;-0.85;100.00;93971.44;1026703;28;20427;-71
2020/12/06 00:37:48;;;;;;;582.10;101.77;;;;;;;-0.84;100.00;93973.03;1022929;29;20031;-71
2020/12/06 00:38:19;;;;;;;554.77;99.70;;;;;;;-0.93;100.00;93955.63;1023317;28;20455;-71
2020/12/06 00:38:49;;;;;;;431.13;89.97;;;;;;;-0.85;100.00;93976.59;1025053;28;20046;-71
2020/12/06 00:39:20;;;;;;;531.47;98.23;;;;;;;-0.92;100.00;93968.25;1018950;28;20027;-72
2020/12/06 00:39:50;;;;;;;528.87;98.70;;;;;;;-0.86;100.00;93975.03;1022889;29;20377;-70
2020/12/06 00:40:21;;;;;;;336.27;82.37;;;;;;;-0.86;100.00;93969.91;1018714;29;20078;-70
2020/12/06 00:40:51;;;;;;;234.03;77.33;;;;;;;-0.86;100.00;93969.91;1023022;28;20031;-71
2020/12/06 00:41:23;;;;;;;212.17;71.10;;;;;;;-0.83;100.00;93974.59;1026486;28;20027;-73
2020/12/06 00:41:53;;;;;;;319.35;86.95;;;;;;;-0.80;100.00;93979.25;1027263;28;20031;-70
2020/12/06 00:42:24;;;;;;;400.90;94.07;;;;;;;-0.79;100.00;93978.25;1034942;28;20022;-73
2020/12/06 00:42:54;;;;;;;369.23;89.97;;;;;;;-0.80;100.00;93978.50;1031003;28;20026;-71
2020/12/06 00:43:25;;;;;;;385.67;91.97;;;;;;;-0.80;100.00;93979.25;1031054;28;20491;-71
2020/12/06 00:43:55;;;;;;;341.13;89.83;;;;;;;-0.80;100.00;93979.25;1026753;28;20023;-70
2020/12/06 00:44:25;;;;;;;332.90;86.80;;;;;;;-0.74;100.00;93982.66;1026842;28;20077;-71
2020/12/06 00:44:56;;;;;;;275.13;78.57;;;;;;;-0.73;100.00;93982.44;1026804;28;20034;-71
2020/12/06 00:45:26;;;;;;;294.30;81.87;;;;;;;-0.71;100.00;93982.19;1026883;28;20498;-70
2020/12/06 00:45:57;;;;;;;245.13;73.23;;;;;;;-0.69;100.00;93979.41;1030774;28;20026;-69
2020/12/06 00:46:27;;;;;;;231.60;77.00;;;;;;;-0.68;100.00;93983.53;1027166;28;20388;-70
2020/12/06 00:46:58;;;;;;;214.37;71.43;;;;;;;-0.76;100.00;93964.91;1030849;28;20061;-72
2020/12/06 00:47:28;;;;;;;235.43;77.10;;;;;;;-0.72;100.00;93965.97;1034862;28;20402;-71
2020/12/06 00:47:59;;;;;;;198.23;70.27;;;;;;;-0.66;100.00;93982.28;1030952;28;20387;-71
2020/12/06 00:48:29;;;;;;;324.20;86.50;;;;;;;-0.66;100.00;93986.66;1030937;28;20018;-70
2020/12/06 00:49:00;;;;;;;250.97;78.53;;;;;;;-0.66;100.00;93981.50;1022797;28;20508;-72
2020/12/06 00:49:30;;;;;;;273.90;78.77;;;;;;;-0.66;100.00;93981.50;1019066;28;20075;-71
2020/12/06 00:50:01;;;;;;;255.87;81.70;;;;;;;-0.63;100.00;93979.25;1023000;29;20475;-70
2020/12/06 00:50:31;;;;;;;290.30;83.60;;;;;;;-0.69;100.00;93971.69;1018758;28;20019;-69
2020/12/06 00:51:02;;;;;;;232.87;76.23;;;;;;;-0.65;100.00;93983.06;1019141;28;20428;-71
2020/12/06 00:51:32;;;;;;;308.97;84.73;;;;;;;-0.64;100.00;93979.47;1022123;29;20018;-72
2020/12/06 00:52:03;;;;;;;199.07;66.27;;;;;;;-0.61;100.00;93984.16;1022782;28;20444;-72
2020/12/06 00:52:34;;;;;;;173.00;64.90;;;;;;;-0.62;100.00;93975.66;1027136;28;20011;-72
2020/12/06 00:53:04;;;;;;;162.80;62.87;;;;;;;-0.60;100.00;93976.19;1034879;28;20450;-71
2020/12/06 00:53:35;;;;;;;119.27;53.80;;;;;;;-0.65;100.00;93962.47;1035046;28;20353;-71
2020/12/06 00:54:05;;;;;;;161.47;63.70;;;;;;;-0.56;100.00;93966.97;1030701;28;20058;-70
2020/12/06 00:54:36;;;;;;;156.70;60.07;;;;;;;-0.56;100.00;93964.41;1030943;28;20071;-74
2020/12/06 00:55:06;;;;;;;194.33;68.40;;;;;;;-0.55;100.00;93965.19;1031011;28;20019;-72
2020/12/06 00:55:37;;;;;;;154.27;61.73;;;;;;;-0.73;100.00;93938.69;1026684;28;20027;-70
2020/12/06 00:56:07;;;;;;;162.97;61.73;;;;;;;-0.53;100.00;93974.25;1027016;28;20007;-71
2020/12/06 00:56:37;;;;;;;146.47;58.27;;;;;;;-0.62;100.00;93959.41;1022932;29;20024;-69
2020/12/06 00:57:08;;;;;;;215.73;68.87;;;;;;;-0.50;100.00;93962.69;1022665;28;20236;-72
2020/12/06 00:57:38;;;;;;;222.40;70.30;;;;;;;-0.53;100.00;93950.28;1026737;28;20019;-72
2020/12/06 00:58:09;;;;;;;210.33;69.13;;;;;;;-0.52;100.00;93949.25;1023070;28;20011;-70
2020/12/06 00:58:39;;;;;;;189.98;66.70;;;;;;;-0.50;100.00;93950.59;1026945;28;20030;-71
2020/12/06 00:59:10;;;;;;;182.43;66.30;;;;;;;-0.57;100.00;93941.44;1030647;28;20019;-72
2020/12/06 00:59:40;;;;;;;219.40;71.40;;;;;;;-0.51;100.00;93948.22;1030897;28;20361;-71
2020/12/06 01:00:11;;;;;;;205.40;69.83;;;;;;;-0.52;100.00;93944.09;1036420;28;20014;-71
2020/12/06 01:00:42;;;;;;;234.40;74.83;;;;;;;-0.51;100.00;93941.28;1038503;28;20511;-71
2020/12/06 01:01:13;;;;;;;247.80;74.70;;;;;;;-0.47;100.00;93933.84;1030966;28;20352;-71
2020/12/06 01:01:44;;;;;;;202.68;67.13;;;;;;;-0.58;100.00;93914.91;1029908;28;20049;-71
2020/12/06 01:02:16;;;;;;;202.57;68.70;;;;;;;-0.47;100.00;93926.13;1026700;28;20727;-72
2020/12/06 01:02:46;;;;;;;184.70;66.13;;;;;;;-0.45;100.00;93926.66;1026725;28;20082;-72
2020/12/06 01:03:17;;;;;;;172.17;64.50;;;;;;;-0.49;100.00;93917.88;1022655;29;20019;-72
2020/12/06 01:03:47;;;;;;;189.40;67.53;;;;;;;-0.48;100.00;93916.84;1022927;28;20022;-72
2020/12/06 01:04:18;;;;;;;167.10;64.80;;;;;;;-0.48;100.00;93919.41;1024785;28;20015;-70
2020/12/06 01:04:51;;;;;;;161.25;64.00;;;;;;;-0.57;100.00;93905.38;1034983;28;20021;-70
2020/12/06 01:05:21;;;;;;;183.27;67.00;;;;;;;-0.55;100.00;93911.88;1036815;28;20025;-69
2020/12/06 01:05:52;;;;;;;139.33;58.63;;;;;;;-0.43;100.00;93916.16;1031132;28;20076;-72
2020/12/06 01:06:22;;;;;;;169.77;63.93;;;;;;;-0.47;100.00;93926.13;1034812;28;20475;-70
2020/12/06 01:06:53;;;;;;;189.93;67.17;;;;;;;-0.47;100.00;93926.13;1034778;28;20072;-71
2020/12/06 01:07:23;;;;;;;228.77;71.27;;;;;;;-0.53;100.00;93921.94;1030973;28;20017;-73
2020/12/06 01:07:54;;;;;;;192.47;69.60;;;;;;;-0.44;100.00;93930.78;1042791;28;20417;-71
2020/12/06 01:08:24;;;;;;;168.87;64.87;;;;;;;-0.48;100.00;93929.72;1043042;28;20017;-71
2020/12/06 01:08:55;;;;;;;131.47;56.40;;;;;;;-0.45;100.00;93933.63;1043032;28;20438;-70
2020/12/06 01:09:25;;;;;;;135.30;57.67;;;;;;;-0.42;100.00;93938.31;1042937;28;20021;-72
2020/12/06 01:09:56;;;;;;;142.63;59.57;;;;;;;-0.44;100.00;93943.69;1038563;28;20033;-72
2020/12/06 01:10:26;;;;;;;151.10;62.20;;;;;;;-0.42;100.00;93954.53;1034873;28;20558;-72
2020/12/06 01:10:57;;;;;;;159.97;60.97;;;;;;;-0.42;100.00;93953.75;1030741;28;20022;-69
2020/12/06 01:11:27;;;;;;;185.57;68.40;;;;;;;-0.55;100.00;93942.00;1030091;28;20026;-71
2020/12/06 01:11:58;;;;;;;188.60;67.70;;;;;;;-0.49;100.00;93959.09;1022396;28;20485;-70
2020/12/06 01:12:29;;;;;;;209.30;68.70;;;;;;;-0.50;100.00;93968.63;1026674;28;20066;-72
2020/12/06 01:12:59;;;;;;;194.87;69.80;;;;;;;-0.52;100.00;93960.34;1026828;28;20266;-71
2020/12/06 01:13:30;;;;;;;209.63;69.40;;;;;;;-0.51;100.00;93958.53;1026946;28;20023;-72
2020/12/06 01:14:00;;;;;;;150.50;61.50;;;;;;;-0.48;100.00;93961.41;1023398;29;20027;-71
2020/12/06 01:14:31;;;;;;;187.37;67.47;;;;;;;-0.50;100.00;93960.13;1019653;29;20417;-72
2020/12/06 01:15:03;;;;;;;205.97;70.90;;;;;;;-0.48;100.00;93965.78;1027319;28;20031;-70
2020/12/06 01:15:33;;;;;;;271.52;79.35;;;;;;;-0.49;100.00;93964.25;1027493;28;20030;-71
2020/12/06 01:16:04;;;;;;;229.70;70.20;;;;;;;-0.47;100.00;93959.59;1031252;28;20026;-73
2020/12/06 01:16:35;;;;;;;225.40;72.33;;;;;;;-0.57;100.00;93946.59;1027501;28;20019;-67
2020/12/06 01:17:05;;;;;;;267.87;78.33;;;;;;;-0.49;100.00;93953.94;1027646;28;20534;-71
2020/12/06 01:17:36;;;;;;;253.60;77.23;;;;;;;-0.53;100.00;93948.47;1027533;28;20019;-71
2020/12/06 01:18:06;;;;;;;224.40;71.57;;;;;;;-0.54;100.00;93946.94;1031629;28;20018;-72
2020/12/06 01:18:37;;;;;;;232.67;75.53;;;;;;;-0.53;100.00;93943.31;1031233;28;20026;-71
2020/12/06 01:19:07;;;;;;;216.80;70.47;;;;;;;-0.52;100.00;93933.78;1023642;29;20444;-71
2020/12/06 01:19:37;;;;;;;249.50;77.10;;;;;;;-0.59;100.00;93928.81;1019779;28;20040;-71
2020/12/06 01:20:08;;;;;;;271.47;79.80;;;;;;;-0.53;100.00;93935.59;1019371;29;20024;-70
2020/12/06 01:20:38;;;;;;;285.10;80.97;;;;;;;-0.52;100.00;93931.22;1023753;28;20095;-70
2020/12/06 01:21:10;;;;;;;244.27;75.27;;;;;;;-0.50;100.00;93929.19;1031806;28;20019;-72
2020/12/06 01:21:40;;;;;;;291.75;80.80;;;;;;;-0.50;100.00;93926.63;1030855;28;20030;-72
2020/12/06 01:22:11;;;;;;;283.30;79.23;;;;;;;-0.58;100.00;93911.56;1031621;28;20034;-71
2020/12/06 01:22:41;;;;;;;224.37;73.87;;;;;;;-0.52;100.00;93933.78;1031540;28;20056;-71
2020/12/06 01:23:12;;;;;;;222.43;73.10;;;;;;;-0.52;100.00;93934.56;1031725;28;20033;-69
2020/12/06 01:23:42;;;;;;;184.73;68.00;;;;;;;-0.51;100.00;93943.84;1027455;28;20058;-70
2020/12/06 01:24:13;;;;;;;195.23;68.93;;;;;;;-0.51;100.00;93941.28;1031524;28;20026;-71
2020/12/06 01:24:43;;;;;;;163.87;63.17;;;;;;;-0.55;100.00;93929.13;1035666;28;20034;-70
2020/12/06 01:25:14;;;;;;;219.23;71.30;;;;;;;-0.46;100.00;93948.31;1031766;28;20037;-75
2020/12/06 01:25:44;;;;;;;253.00;75.37;;;;;;;-0.47;100.00;93949.31;1031625;28;20034;-70
2020/12/06 01:26:14;;;;;;;240.33;71.40;;;;;;;-0.54;100.00;93938.41;1023665;29;20019;-71
2020/12/06 01:26:46;;;;;;;244.07;73.30;;;;;;;-0.50;100.00;93950.59;1027346;28;20101;-74
2020/12/06 01:27:17;;;;;;;212.38;67.90;;;;;;;-0.77;100.00;93896.41;1027472;28;20030;-70
2020/12/06 01:27:48;;;;;;;194.20;66.83;;;;;;;-0.44;100.00;93938.53;1027557;28;20031;-73
2020/12/06 01:28:19;;;;;;;184.63;66.03;;;;;;;-0.48;100.00;93930.50;1023713;28;20126;-71
2020/12/06 01:28:49;;;;;;;215.53;70.50;;;;;;;-0.46;100.00;93929.50;1031188;28;20034;-72
2020/12/06 01:29:19;;;;;;;215.97;69.90;;;;;;;-0.53;100.00;93924.53;1027717;28;20015;-71
2020/12/06 01:29:50;;;;;;;189.60;66.43;;;;;;;-0.52;100.00;93931.22;1031780;28;20479;-72
2020/12/06 01:30:20;;;;;;;195.67;64.83;;;;;;;-0.46;100.00;93934.66;1035461;28;20018;-73
2020/12/06 01:30:51;;;;;;;225.40;68.33;;;;;;;-0.44;100.00;93940.31;1039683;28;20016;-71
2020/12/06 01:31:21;;;;;;;231.37;73.43;;;;;;;-0.44;100.00;93943.69;1039238;28;20021;-73
2020/12/06 01:31:52;;;;;;;262.20;75.00;;;;;;;-0.47;100.00;93941.56;1039342;28;20029;-71
2020/12/06 01:32:22;;;;;;;201.70;65.70;;;;;;;-0.51;100.00;93930.97;1035645;28;20141;-71
2020/12/06 01:32:53;;;;;;;167.73;65.00;;;;;;;-0.45;100.00;93933.63;1031489;28;20480;-72
2020/12/06 01:33:23;;;;;;;192.77;64.87;;;;;;;-0.41;100.00;93937.28;1031389;28;20177;-72
2020/12/06 01:33:54;;;;;;;153.63;59.70;;;;;;;-0.44;100.00;93930.78;1031337;28;20026;-72
2020/12/06 01:34:24;;;;;;;137.17;58.73;;;;;;;-0.48;100.00;93929.72;1027470;28;20480;-72
2020/12/06 01:34:55;;;;;;;173.03;63.67;;;;;;;-0.39;100.00;93937.84;1035485;28;20022;-71
2020/12/06 01:35:25;;;;;;;176.13;64.83;;;;;;;-0.40;100.00;93931.09;1035354;28;20040;-73
2020/12/06 01:35:56;;;;;;;164.73;64.27;;;;;;;-0.36;100.00;93930.41;1031695;28;20061;-71
2020/12/06 01:36:26;;;;;;;173.47;65.30;;;;;;;-0.43;100.00;93922.06;1023553;28;20204;-70
2020/12/06 01:36:57;;;;;;;227.23;70.33;;;;;;;-0.38;100.00;93935.00;1031192;28;20010;-71
2020/12/06 01:37:27;;;;;;;231.47;71.27;;;;;;;-0.43;100.00;93916.16;1031443;28;20519;-71
2020/12/06 01:38:00;;;;;;;229.20;69.33;;;;;;;-0.42;100.00;93915.91;1031361;28;20045;-71
2020/12/06 01:38:30;;;;;;;168.52;61.67;;;;;;;-0.39;100.00;93918.00;1027455;28;20026;-70
2020/12/06 01:39:01;;;;;;;204.37;66.43;;;;;;;-0.41;100.00;93908.94;1027386;28;20110;-70
2020/12/06 01:39:31;;;;;;;181.27;63.03;;;;;;;-0.39;100.00;93927.53;1031505;28;20811;-70
2020/12/06 01:40:02;;;;;;;149.10;58.33;;;;;;;-0.39;100.00;93930.09;1031588;28;20018;-72
2020/12/06 01:40:38;;;;;;;177.02;61.33;;;;;;;-0.43;100.00;93916.91;1031641;28;20027;-72
2020/12/06 01:41:09;;;;;;;180.80;62.63;;;;;;;-0.45;100.00;93924.09;1027458;28;20093;-72
2020/12/06 01:41:39;;;;;;;166.60;60.93;;;;;;;-0.40;100.00;93926.75;1030734;28;20617;-73
2020/12/06 01:42:10;;;;;;;189.87;64.30;;;;;;;-0.41;100.00;93929.56;1031423;28;20034;-71
2020/12/06 01:42:40;;;;;;;147.73;57.40;;;;;;;-0.44;100.00;93919.72;1031541;28;20026;-71
2020/12/06 01:43:11;;;;;;;131.03;56.20;;;;;;;-0.47;100.00;93910.66;1035483;28;20018;-71
2020/12/06 01:43:41;;;;;;;119.10;54.70;;;;;;;-0.40;100.00;93906.13;1027333;28;20535;-69
2020/12/06 01:44:12;;;;;;;154.80;61.13;;;;;;;-0.37;100.00;93903.09;1026074;28;20487;-70
2020/12/06 01:44:42;;;;;;;176.37;63.97;;;;;;;-0.39;100.00;93897.38;1027368;28;20050;-72
2020/12/06 01:45:12;;;;;;;199.63;69.03;;;;;;;-0.36;100.00;93902.06;1027465;28;20488;-71
2020/12/06 01:45:43;;;;;;;202.23;67.80;;;;;;;-0.44;100.00;93888.81;1027468;28;20022;-71
2020/12/06 01:46:13;;;;;;;145.23;57.87;;;;;;;-0.43;100.00;93891.16;1031651;28;20027;-71
2020/12/06 01:46:44;;;;;;;184.03;63.70;;;;;;;-0.43;100.00;93885.22;1027528;28;20023;-72
2020/12/06 01:47:14;;;;;;;178.77;63.20;;;;;;;-0.38;100.00;93898.94;1027284;28;20138;-71
2020/12/06 01:47:45;;;;;;;136.93;54.43;;;;;;;-0.45;100.00;93889.84;1031413;28;20473;-71
2020/12/06 01:48:16;;;;;;;158.73;61.67;;;;;;;-0.38;100.00;93893.78;1035616;28;20927;-72
2020/12/06 01:48:46;;;;;;;154.97;59.80;;;;;;;-0.49;100.00;93871.50;1031357;28;20261;-70
2020/12/06 01:49:18;;;;;;;173.57;61.63;;;;;;;-0.34;100.00;93894.84;1023290;29;20058;-71
2020/12/06 01:49:49;;;;;;;169.10;63.67;;;;;;;-0.31;100.00;93899.53;1023518;29;20011;-71
2020/12/06 01:50:19;;;;;;;170.03;66.17;;;;;;;-0.47;100.00;93874.59;1027384;28;20056;-73
2020/12/06 01:50:49;;;;;;;155.77;59.20;;;;;;;-0.36;100.00;93896.91;1027672;28;20049;-72
2020/12/06 01:51:20;;;;;;;162.27;63.70;;;;;;;-0.35;100.00;93901.03;1035155;28;20109;-74
2020/12/06 01:52:00;;;;;;;151.60;59.30;;;;;;;-0.34;100.00;93894.84;1034811;28;20010;-72
2020/12/06 01:52:30;;;;;;;189.98;63.83;;;;;;;-0.35;100.00;93897.69;1027328;28;20015;-71
2020/12/06 01:53:02;;;;;;;190.73;64.20;;;;;;;-0.41;100.00;93893.47;1028732;28;20039;-71
2020/12/06 01:53:32;;;;;;;164.80;60.33;;;;;;;-0.36;100.00;93906.44;1027402;28;20050;-71
2020/12/06 01:54:03;;;;;;;174.63;61.23;;;;;;;-0.37;100.00;93910.00;1019103;29;20071;-72
2020/12/06 01:54:34;;;;;;;216.38;66.82;;;;;;;-0.43;100.00;93906.63;1019546;29;20088;-72
2020/12/06 01:55:05;;;;;;;199.73;64.07;;;;;;;-0.36;100.00;93914.94;1023393;29;20397;-68
2020/12/06 01:55:35;;;;;;;152.00;58.30;;;;;;;-0.34;100.00;93919.84;1031204;28;20050;-73
2020/12/06 01:56:06;;;;;;;225.50;68.23;;;;;;;-0.37;100.00;93915.97;1031365;28;20022;-73
2020/12/06 01:56:36;;;;;;;167.53;62.00;;;;;;;-0.37;100.00;93910.81;1031468;28;20026;-74
2020/12/06 01:57:07;;;;;;;164.33;61.07;;;;;;;-0.37;100.00;93910.81;1031733;28;20411;-70
2020/12/06 01:57:37;;;;;;;146.10;59.07;;;;;;;-0.34;100.00;93904.38;1038151;28;20013;-68
2020/12/06 01:58:08;;;;;;;180.57;61.23;;;;;;;-0.39;100.00;93891.47;1031370;28;20023;-70
2020/12/06 01:58:39;;;;;;;142.65;56.38;;;;;;;-0.49;100.00;93869.69;1027330;28;20182;-70
2020/12/06 01:59:11;;;;;;;155.90;59.37;;;;;;;-0.39;100.00;93881.16;1029054;28;20077;-72
2020/12/06 01:59:42;;;;;;;145.98;55.80;;;;;;;-0.39;100.00;93881.94;1031630;28;20034;-72
2020/12/06 02:00:12;;;;;;;150.07;58.10;;;;;;;-0.38;100.00;93882.69;1027322;28;20070;-73
2020/12/06 02:00:43;;;;;;;188.30;64.77;;;;;;;-0.38;100.00;93878.31;1027702;28;20666;-71
2020/12/06 02:01:13;;;;;;;199.63;65.37;;;;;;;-0.42;100.00;93874.69;1027510;28;20027;-71
2020/12/06 02:02:02;;;;;;;206.33;66.70;;;;;;;-0.43;100.00;93873.13;1026447;28;20447;-74
2020/12/06 02:02:35;;;;;;;178.15;61.28;;;;;;;-0.44;100.00;93876.69;1027289;28;20141;-73
2020/12/06 02:03:05;;;;;;;219.27;63.97;;;;;;;-0.46;100.00;93873.59;1027386;28;20030;-73
2020/12/06 02:03:36;;;;;;;204.90;65.20;;;;;;;-0.46;100.00;93876.19;1023312;29;20031;-71
2020/12/06 02:04:06;;;;;;;213.23;66.00;;;;;;;-0.44;100.00;93861.25;1023046;28;20046;-71
2020/12/06 02:04:37;;;;;;;218.07;66.83;;;;;;;-0.43;100.00;93872.34;1023371;29;20059;-70
2020/12/06 02:05:07;;;;;;;175.23;62.53;;;;;;;-0.43;100.00;93873.13;1025266;28;20380;-70
2020/12/06 02:05:38;;;;;;;183.73;66.23;;;;;;;-0.43;100.00;93870.53;1031706;28;20080;-72
2020/12/06 02:06:08;;;;;;;283.83;75.37;;;;;;;-0.48;100.00;93866.09;1031098;28;20046;-72
2020/12/06 02:06:39;;;;;;;233.93;70.37;;;;;;;-0.46;100.00;93863.28;1030859;28;20038;-73
2020/12/06 02:07:09;;;;;;;223.23;70.40;;;;;;;-0.57;100.00;93849.53;1029183;28;20038;-71
2020/12/06 02:07:40;;;;;;;174.33;64.50;;;;;;;-0.48;100.00;93852.44;1031096;28;20062;-70
2020/12/06 02:08:10;;;;;;;174.40;63.90;;;;;;;-0.48;100.00;93860.16;1031190;28;20026;-72
2020/12/06 02:08:41;;;;;;;170.67;63.57;;;;;;;-0.51;100.00;93847.78;1028884;28;20022;-71
2020/12/06 02:09:11;;;;;;;174.83;63.10;;;;;;;-0.49;100.00;93851.66;1027286;28;20022;-70
2020/12/06 02:09:44;;;;;;;158.77;61.93;;;;;;;-0.44;100.00;93853.50;1029868;28;20022;-71
2020/12/06 02:10:14;;;;;;;162.68;62.17;;;;;;;-0.46;100.00;93852.22;1035591;28;20487;-70
2020/12/06 02:10:45;;;;;;;187.77;65.80;;;;;;;-0.48;100.00;93847.28;1038195;28;20026;-71
2020/12/06 02:11:31;;;;;;;199.43;66.77;;;;;;;-0.51;100.00;93845.97;1031890;28;20093;-71
2020/12/06 02:12:08;;;;;;;222.80;66.35;;;;;;;-0.58;100.00;93832.50;1034830;28;20010;-71
2020/12/06 02:12:47;;;;;;;159.68;59.22;;;;;;;-0.64;100.00;93827.53;1032536;28;20116;-69
2020/12/06 02:13:20;;;;;;;191.80;62.15;;;;;;;-0.59;100.00;93836.09;1031386;28;20014;-70
2020/12/06 02:13:50;;;;;;;181.57;63.85;;;;;;;-0.64;100.00;93822.38;1029838;28;20064;-71
2020/12/06 02:14:21;;;;;;;201.70;69.27;;;;;;;-0.62;100.00;93822.94;1024811;28;20062;-70
2020/12/06 02:14:51;;;;;;;197.53;65.67;;;;;;;-0.64;100.00;93827.53;1027294;28;20053;-70
2020/12/06 02:15:22;;;;;;;255.23;75.97;;;;;;;-0.59;100.00;93840.47;1031437;28;20383;-70
2020/12/06 02:15:54;;;;;;;253.70;74.63;;;;;;;-0.63;100.00;93832.44;1031680;28;20336;-72
2020/12/06 02:16:25;;;;;;;236.63;73.82;;;;;;;-0.72;100.00;93832.06;1035320;28;20014;-70
2020/12/06 02:16:55;;;;;;;220.10;70.30;;;;;;;-0.64;100.00;93837.81;1039626;28;20107;-70
2020/12/06 02:17:31;;;;;;;188.83;65.87;;;;;;;-0.67;100.00;93839.09;1035457;28;20482;-73
2020/12/06 02:18:02;;;;;;;210.73;69.88;;;;;;;-0.60;100.00;93846.66;1035453;28;20021;-72
2020/12/06 02:18:33;;;;;;;204.77;69.40;;;;;;;-0.65;100.00;93846.56;1035388;28;20029;-70